createdAt,value
2023-05-16T16:11:21.971Z,17.10
2023-05-16T16:11:28.320Z,17.50
2023-05-16T16:11:38.350Z,17.10
2023-05-16T16:12:08.022Z,17.10
2023-05-16T16:12:13.721Z,17.20
2023-05-16T16:12:21.415Z,17.40
2023-05-16T16:12:31.813Z,17.20
2023-05-16T16:12:42.764Z,17.70
2023-05-16T16:13:07.653Z,17.30
2023-05-16T16:13:13.556Z,16.40
2023-05-16T16:13:23.777Z,16.10
2023-05-16T16:13:34.074Z,16.60
2023-05-16T16:13:44.038Z,17.60
2023-05-16T16:13:54.443Z,17.90
2023-05-16T16:14:14.652Z,17.20
2023-05-16T16:14:25.274Z,17.50
2023-05-16T16:14:34.762Z,17.80
2023-05-16T16:14:44.990Z,17.40
2023-05-16T16:14:54.988Z,17.60
2023-05-16T16:15:05.224Z,18.60
2023-05-16T16:15:15.668Z,20.00
2023-05-16T16:15:25.436Z,21.00
2023-05-16T16:15:35.828Z,20.70
2023-05-16T16:15:45.543Z,22.70
2023-05-16T16:15:55.666Z,23.70
2023-05-16T16:16:05.613Z,23.20
2023-05-16T16:16:16.180Z,20.70
2023-05-16T16:16:26.151Z,18.70
2023-05-16T16:16:36.201Z,20.70
2023-05-16T16:16:46.367Z,26.30
2023-05-16T16:16:56.335Z,27.30
2023-05-16T16:17:08.687Z,27.90
2023-05-16T16:17:16.572Z,23.10
2023-05-16T16:17:26.681Z,22.40
2023-05-16T16:17:36.916Z,20.00
2023-05-16T16:17:47.161Z,19.40
2023-05-16T16:17:57.083Z,18.70
2023-05-16T16:18:17.574Z,24.70
2023-05-16T16:18:27.623Z,26.30
2023-05-16T16:18:37.760Z,23.80
2023-05-16T16:18:47.878Z,23.80
2023-05-16T16:18:57.985Z,24.00
2023-05-16T16:19:08.280Z,23.40
2023-05-16T16:19:18.475Z,23.20
2023-05-16T16:19:29.515Z,23.60
2023-05-16T16:19:38.406Z,23.70
2023-05-16T16:19:51.402Z,22.30
2023-05-16T16:19:59.040Z,21.50
2023-05-16T16:20:08.838Z,20.80
2023-05-16T16:20:19.918Z,20.90
2023-05-16T16:20:39.338Z,22.10
2023-05-16T16:20:49.599Z,22.60
2023-05-16T16:20:59.916Z,22.60
2023-05-16T16:21:09.618Z,23.40
2023-05-16T16:21:21.396Z,23.00
2023-05-16T16:21:30.893Z,22.50
2023-05-16T16:21:40.487Z,20.10
2023-05-16T16:21:50.338Z,20.40
2023-05-16T16:22:00.564Z,20.30
2023-05-16T16:22:11.861Z,21.00
2023-05-16T16:22:31.239Z,21.20
2023-05-16T16:22:41.584Z,20.80
2023-05-16T16:22:52.284Z,20.10
2023-05-16T16:23:02.506Z,20.00
2023-05-16T16:23:11.331Z,20.40
2023-05-16T16:23:21.558Z,20.60
2023-05-16T16:23:31.560Z,19.90
2023-05-16T16:23:41.977Z,19.80
2023-05-16T16:24:01.785Z,19.10
2023-05-16T16:24:13.434Z,19.00
2023-05-16T16:24:22.413Z,18.00
2023-05-16T16:24:32.258Z,17.90
2023-05-16T16:24:42.234Z,17.90
2023-05-16T16:24:52.270Z,17.80
2023-05-16T16:25:02.353Z,17.90
2023-05-16T16:25:16.685Z,17.70
2023-05-16T16:25:22.810Z,17.70
2023-05-16T16:25:33.835Z,17.40
2023-05-16T16:25:43.914Z,16.80
2023-05-16T16:26:08.883Z,16.80
2023-05-16T16:26:15.570Z,18.20
2023-05-16T16:26:26.317Z,18.60
2023-05-16T16:26:35.554Z,18.40
2023-05-16T16:26:53.654Z,18.50
2023-05-16T16:27:06.064Z,18.00
2023-05-16T16:27:12.577Z,17.20
2023-05-16T16:27:23.032Z,18.20
2023-05-16T16:27:32.451Z,19.50
2023-05-16T16:27:43.141Z,21.00
2023-05-16T16:28:02.598Z,21.10
2023-05-16T16:28:12.910Z,20.50
2023-05-16T16:28:22.967Z,19.80
2023-05-16T16:28:33.168Z,19.20
2023-05-16T16:28:43.103Z,19.40
2023-05-16T16:28:53.261Z,19.60
2023-05-16T16:29:07.222Z,19.60
2023-05-16T16:29:13.536Z,19.50
2023-05-16T16:29:23.578Z,19.90
2023-05-16T16:29:33.963Z,20.00
2023-05-16T16:29:43.890Z,19.90
2023-05-16T16:29:53.992Z,19.20
2023-05-16T16:30:14.255Z,19.00
2023-05-16T16:30:24.183Z,20.00
2023-05-16T16:30:34.493Z,21.80
2023-05-16T16:30:44.732Z,21.10
2023-05-16T16:30:54.772Z,21.80
2023-05-16T16:31:04.906Z,20.30
2023-05-16T16:31:15.027Z,20.90
2023-05-16T16:31:25.184Z,18.50
2023-05-16T16:31:37.552Z,17.10
2023-05-16T16:31:45.366Z,15.50
2023-05-16T16:31:57.209Z,15.60
2023-05-16T16:32:05.619Z,15.80
2023-05-16T16:32:15.889Z,16.30
2023-05-16T16:32:25.875Z,16.50
2023-05-16T16:32:46.469Z,16.40
2023-05-16T16:32:56.310Z,16.70
2023-05-16T16:33:06.312Z,16.40
2023-05-16T16:33:16.331Z,16.50
2023-05-16T16:33:27.847Z,16.20
2023-05-16T16:33:36.781Z,16.60
2023-05-16T16:33:46.781Z,17.90
2023-05-16T16:33:57.996Z,19.30
2023-05-16T16:34:06.985Z,19.30
2023-05-16T16:34:17.129Z,17.10
2023-05-16T16:34:37.321Z,14.50
2023-05-16T16:34:47.486Z,15.60
2023-05-16T16:34:57.504Z,16.10
2023-05-16T16:35:07.699Z,16.80
2023-05-16T16:35:17.994Z,16.40
2023-05-16T16:35:28.376Z,16.60
2023-05-16T16:35:38.113Z,16.30
2023-05-16T16:35:48.122Z,17.30
2023-05-16T16:35:58.272Z,17.50
2023-05-16T16:36:08.503Z,17.50
2023-05-16T16:36:19.715Z,16.50
2023-05-16T16:36:28.800Z,16.50
2023-05-16T16:36:38.851Z,17.10
2023-05-16T16:36:48.959Z,17.50
2023-05-16T16:36:59.091Z,18.00
2023-05-16T16:37:09.618Z,17.70
2023-05-16T16:37:30.334Z,17.80
2023-05-16T16:37:39.921Z,17.90
2023-05-16T16:38:05.158Z,17.40
2023-05-16T16:38:12.790Z,17.10
2023-05-16T16:38:18.744Z,16.80
2023-05-16T16:38:29.950Z,16.40
2023-05-16T16:38:39.023Z,16.20
2023-05-16T16:38:49.150Z,16.10
2023-05-16T16:38:59.273Z,16.70
2023-05-16T16:39:19.467Z,17.60
2023-05-16T16:39:31.395Z,17.90
2023-05-16T16:39:39.721Z,18.60
2023-05-16T16:39:50.904Z,19.20
2023-05-16T16:39:59.854Z,19.10
2023-05-16T16:40:09.936Z,18.40
2023-05-16T16:40:19.983Z,17.70
2023-05-16T16:40:30.336Z,19.30
2023-05-16T16:40:41.225Z,19.50
2023-05-16T16:40:52.358Z,19.20
2023-05-16T16:41:00.648Z,17.20
2023-05-16T16:41:11.248Z,16.40
2023-05-16T16:41:21.526Z,16.30
2023-05-16T16:41:30.937Z,16.30
2023-05-16T16:41:41.392Z,16.20
2023-05-16T16:42:00.359Z,16.90
2023-05-16T16:42:11.639Z,17.70
2023-05-16T16:42:22.251Z,19.20
2023-05-16T16:42:39.749Z,20.10
2023-05-16T16:42:45.719Z,20.10
2023-05-16T16:42:56.119Z,21.10
2023-05-16T16:43:05.886Z,22.50
2023-05-16T16:43:17.198Z,22.60
2023-05-16T16:43:27.289Z,21.00
2023-05-16T16:43:46.758Z,16.40
2023-05-16T16:43:56.837Z,16.30
2023-05-16T16:44:06.613Z,17.10
2023-05-16T16:44:17.946Z,17.60
2023-05-16T16:44:26.938Z,18.40
2023-05-16T16:44:37.004Z,18.40
2023-05-16T16:44:47.112Z,19.10
2023-05-16T16:44:57.214Z,18.80
2023-05-16T16:45:07.306Z,18.40
2023-05-16T16:45:27.968Z,16.40
2023-05-16T16:45:37.739Z,16.70
2023-05-16T16:45:48.002Z,17.00
2023-05-16T16:45:58.728Z,17.80
2023-05-16T16:46:08.257Z,17.90
2023-05-16T16:46:18.245Z,17.60
2023-05-16T16:46:28.445Z,17.40
2023-05-16T16:46:38.633Z,17.60
2023-05-16T16:46:49.745Z,18.50
2023-05-16T16:46:59.040Z,19.60
2023-05-16T16:47:09.919Z,40.80
2023-05-16T16:47:19.110Z,40.30
2023-05-16T16:47:29.234Z,39.50
2023-05-16T16:47:39.281Z,20.70
2023-05-16T16:47:50.004Z,22.30
2023-05-16T16:47:59.648Z,21.90
2023-05-16T16:48:09.828Z,18.80
2023-05-16T16:48:19.753Z,16.90
2023-05-16T16:48:29.919Z,16.90
2023-05-16T16:48:40.076Z,17.50
2023-05-16T16:48:50.224Z,17.70
2023-05-16T16:49:01.346Z,17.70
2023-05-16T16:49:10.490Z,17.70
2023-05-16T16:49:20.702Z,17.50
2023-05-16T16:49:30.766Z,17.10
2023-05-16T16:49:40.713Z,16.50
2023-05-16T16:49:51.027Z,17.60
2023-05-16T16:50:11.742Z,18.20
2023-05-16T16:50:22.184Z,21.30
2023-05-16T16:50:34.220Z,21.70
2023-05-16T16:50:41.572Z,23.30
2023-05-16T16:50:51.672Z,18.50
2023-05-16T16:51:01.901Z,17.90
2023-05-16T16:51:12.942Z,16.60
2023-05-16T16:51:22.245Z,16.90
2023-05-16T16:51:42.214Z,16.90
2023-05-16T16:51:52.517Z,17.20
2023-05-16T16:52:02.618Z,16.80
2023-05-16T16:52:12.529Z,16.50
2023-05-16T16:52:22.885Z,24.60
2023-05-16T16:52:32.699Z,34.90
2023-05-16T16:52:43.190Z,36.20
2023-05-16T16:52:53.284Z,19.20
2023-05-16T16:53:03.416Z,18.20
2023-05-16T16:53:13.282Z,17.50
2023-05-16T16:53:24.317Z,16.10
2023-05-16T16:53:33.661Z,15.90
2023-05-16T16:53:43.719Z,15.60
2023-05-16T16:53:53.858Z,17.00
2023-05-16T16:54:04.006Z,19.60
2023-05-16T16:54:14.190Z,22.30
2023-05-16T16:54:34.925Z,23.40
2023-05-16T16:54:44.413Z,21.40
2023-05-16T16:54:54.463Z,23.70
2023-05-16T16:55:04.816Z,20.10
2023-05-16T16:55:14.727Z,20.20
2023-05-16T16:55:24.817Z,32.00
2023-05-16T16:55:36.212Z,43.40
2023-05-16T16:55:45.052Z,43.50
2023-05-16T16:55:55.272Z,28.90
2023-05-16T16:56:05.447Z,16.20
2023-05-16T16:56:15.440Z,15.50
2023-05-16T16:56:25.689Z,15.90
2023-05-16T16:56:35.690Z,16.70
2023-05-16T16:56:45.926Z,16.30
2023-05-16T16:56:56.233Z,16.40
2023-05-16T16:57:06.303Z,15.40
2023-05-16T16:57:16.341Z,15.50
2023-05-16T16:57:26.366Z,15.00
2023-05-16T16:57:36.888Z,15.40
2023-05-16T16:57:47.434Z,16.20
2023-05-16T16:57:57.661Z,17.30
2023-05-16T16:58:06.840Z,17.30
2023-05-16T16:58:17.900Z,16.30
2023-05-16T16:58:27.306Z,15.70
2023-05-16T16:58:37.317Z,15.80
2023-05-16T16:58:57.517Z,16.00
2023-05-16T16:59:07.742Z,16.50
2023-05-16T16:59:17.826Z,16.90
2023-05-16T16:59:27.837Z,17.30
2023-05-16T16:59:38.005Z,16.90
2023-05-16T16:59:48.086Z,16.50
2023-05-16T16:59:58.403Z,16.20
2023-05-16T17:00:08.233Z,16.40
2023-05-16T17:00:18.448Z,16.20
2023-05-16T17:00:28.464Z,16.00
2023-05-16T17:00:38.667Z,15.70
2023-05-16T17:00:48.980Z,15.90
2023-05-16T17:00:58.841Z,16.00
2023-05-16T17:01:09.493Z,16.60
2023-05-16T17:01:19.065Z,16.80
2023-05-16T17:01:30.257Z,16.90
2023-05-16T17:01:39.472Z,16.00
2023-05-16T17:01:49.595Z,15.50
2023-05-16T17:01:59.470Z,15.20
2023-05-16T17:02:09.647Z,14.90
2023-05-16T17:02:19.805Z,15.10
2023-05-16T17:02:30.242Z,15.00
2023-05-16T17:02:40.246Z,15.30
2023-05-16T17:02:50.360Z,15.30
2023-05-16T17:03:00.344Z,15.70
2023-05-16T17:03:10.428Z,16.20
2023-05-16T17:03:21.400Z,16.20
2023-05-16T17:03:30.742Z,15.60
2023-05-16T17:03:40.734Z,15.20
2023-05-16T17:03:50.907Z,15.10
2023-05-16T17:04:01.093Z,15.50
2023-05-16T17:04:11.087Z,15.50
2023-05-16T17:04:21.232Z,15.40
2023-05-16T17:04:31.390Z,15.30
2023-05-16T17:04:42.068Z,15.30
2023-05-16T17:04:51.728Z,15.60
2023-05-16T17:05:01.978Z,16.20
2023-05-16T17:05:11.831Z,17.00
2023-05-16T17:05:22.042Z,16.90
2023-05-16T17:05:32.044Z,16.00
2023-05-16T17:05:43.256Z,14.90
2023-05-16T17:05:52.366Z,14.60
2023-05-16T17:06:02.933Z,14.40
2023-05-16T17:06:12.896Z,14.70
2023-05-16T17:06:23.205Z,14.60
2023-05-16T17:06:33.227Z,14.80
2023-05-16T17:06:56.893Z,14.60
2023-05-16T17:07:03.795Z,14.50
2023-05-16T17:07:14.328Z,14.50
2023-05-16T17:07:25.147Z,14.60
2023-05-16T17:07:33.958Z,14.90
2023-05-16T17:07:43.998Z,15.20
2023-05-16T17:08:04.238Z,15.30
2023-05-16T17:08:14.543Z,14.90
2023-05-16T17:08:25.016Z,14.60
2023-05-16T17:08:34.907Z,15.30
2023-05-16T17:08:44.945Z,15.50
2023-05-16T17:08:55.314Z,16.00
2023-05-16T17:09:04.976Z,15.40
2023-05-16T17:09:15.515Z,16.00
2023-05-16T17:09:25.253Z,16.10
2023-05-16T17:09:35.328Z,16.60
2023-05-16T17:09:45.539Z,16.40
2023-05-16T17:09:55.585Z,16.20
2023-05-16T17:10:06.650Z,17.10
2023-05-16T17:10:16.480Z,16.90
2023-05-16T17:10:26.821Z,17.00
2023-05-16T17:10:37.066Z,15.90
2023-05-16T17:10:46.401Z,16.50
2023-05-16T17:10:56.366Z,16.80
2023-05-16T17:11:13.414Z,17.40
